Gradyville, Kentucky
Current Conditions -  °F | °C
As of 7:55 PM on Saturday 22 Nov 2014 (Local Time) from KGLW Reporting Station
Broken Clouds Broken Clouds  
Wind Chill: 54°   Ceiling: 8000
Heat Index: 54°   Visibility: 10mi
Dew Point: 35°   Wind: 6mph
Humidity: 49%   Direction: 170°S
Pressure: 30.11"   Gusts: NA
Location:  37.06°N, 85.42°W
Report Text: KGLW 230155Z AUTO 17005KT 10SM BKN080 BKN120 12/02 A3011 RMK AO2 T01210017
Loading
Personal Weather Stations






























Interactive Weather Map New forecast layout! Learn more

10-Day Weather Forecast

Advertisements
Track Severe Weather on mobile